sensor_id;sensor_type;location;lat;lon;timestamp;pressure;altitude;pressure_sealevel;temperature;humidity
40013;BME280;37387;42.672;23.334;2022-10-31T00:08:13;948.8;;;14.4;61.7
40013;BME280;37387;42.672;23.334;2022-10-31T00:09:13;948.8;;;14.3;61.7
40013;BME280;37387;42.672;23.334;2022-10-31T00:10:13;948.8;;;14.4;61.9
40013;BME280;37387;42.672;23.334;2022-10-31T00:11:13;948.8;;;14.3;61.9
40013;BME280;37387;42.672;23.334;2022-10-31T00:17:13;948.7;;;14.2;62.4
40013;BME280;37387;42.672;23.334;2022-10-31T00:18:13;948.7;;;14.3;62.5
40013;BME280;37387;42.672;23.334;2022-10-31T00:19:13;948.7;;;14.2;62.5
40013;BME280;37387;42.672;23.334;2022-10-31T00:43:13;948.7;;;14.3;63.5
40013;BME280;37387;42.672;23.334;2022-10-31T00:44:13;948.7;;;14.2;63.5
40013;BME280;37387;42.672;23.334;2022-10-31T00:49:13;948.7;;;14.1;64.1
40013;BME280;37387;42.672;23.334;2022-10-31T00:56:13;948.7;;;14.0;64.7
40013;BME280;37387;42.672;23.334;2022-10-31T00:58:13;948.8;;;13.9;65.1
40013;BME280;37387;42.672;23.334;2022-10-31T01:01:13;948.7;;;14.0;65.5
40013;BME280;37387;42.672;23.334;2022-10-31T01:02:13;948.7;;;13.9;65.4
40013;BME280;37387;42.672;23.334;2022-10-31T01:20:14;948.8;;;13.8;66.3
40013;BME280;37387;42.672;23.334;2022-10-31T01:25:13;948.8;;;13.7;67.0
40013;BME280;37387;42.672;23.334;2022-10-31T01:32:13;948.9;;;13.8;67.5
40013;BME280;37387;42.672;23.334;2022-10-31T01:36:15;948.9;;;13.9;67.1
40013;BME280;37387;42.672;23.334;2022-10-31T01:40:13;948.9;;;14.0;66.8
40013;BME280;37387;42.672;23.334;2022-10-31T01:41:14;948.9;;;13.9;66.7
40013;BME280;37387;42.672;23.334;2022-10-31T01:42:15;948.9;;;14.0;66.7
40013;BME280;37387;42.672;23.334;2022-10-31T01:48:14;948.9;;;14.1;66.8
40013;BME280;37387;42.672;23.334;2022-10-31T01:54:14;948.9;;;14.2;66.9
40013;BME280;37387;42.672;23.334;2022-10-31T02:02:13;949.0;;;14.3;67.2
40013;BME280;37387;42.672;23.334;2022-10-31T02:03:13;948.9;;;14.2;67.0
40013;BME280;37387;42.672;23.334;2022-10-31T02:11:13;948.8;;;14.1;68.2
40013;BME280;37387;42.672;23.334;2022-10-31T02:12:13;948.8;;;14.2;68.2
40013;BME280;37387;42.672;23.334;2022-10-31T02:26:19;949.0;;;14.3;68.7
40013;BME280;37387;42.672;23.334;2022-10-31T02:27:16;949.0;;;14.2;68.8
40013;BME280;37387;42.672;23.334;2022-10-31T02:30:14;949.0;;;14.1;69.4
40013;BME280;37387;42.672;23.334;2022-10-31T02:31:16;949.0;;;14.2;69.4
40013;BME280;37387;42.672;23.334;2022-10-31T02:35:14;949.0;;;14.1;70.0
40013;BME280;37387;42.672;23.334;2022-10-31T02:36:16;949.0;;;14.0;70.4
40013;BME280;37387;42.672;23.334;2022-10-31T02:39:15;949.1;;;14.1;70.7
40013;BME280;37387;42.672;23.334;2022-10-31T02:40:14;949.1;;;13.9;70.7
40013;BME280;37387;42.672;23.334;2022-10-31T02:42:14;949.1;;;13.8;71.4
40013;BME280;37387;42.672;23.334;2022-10-31T02:46:13;949.2;;;13.7;71.7
40013;BME280;37387;42.672;23.334;2022-10-31T02:49:15;949.2;;;13.6;72.2
40013;BME280;37387;42.672;23.334;2022-10-31T02:50:15;949.1;;;13.7;71.9
40013;BME280;37387;42.672;23.334;2022-10-31T02:53:14;949.2;;;13.6;71.6
40013;BME280;37387;42.672;23.334;2022-10-31T03:00:13;949.1;;;13.5;72.4
40013;BME280;37387;42.672;23.334;2022-10-31T03:02:17;949.2;;;13.4;73.3
40013;BME280;37387;42.672;23.334;2022-10-31T03:04:16;949.3;;;13.3;74.6
40013;BME280;37387;42.672;23.334;2022-10-31T03:05:23;949.3;;;13.2;74.6
40013;BME280;37387;42.672;23.334;2022-10-31T03:06:14;949.2;;;13.3;74.4
40013;BME280;37387;42.672;23.334;2022-10-31T03:08:14;949.3;;;13.4;74.5
40013;BME280;37387;42.672;23.334;2022-10-31T03:14:16;949.2;;;13.5;73.9
40013;BME280;37387;42.672;23.334;2022-10-31T03:16:14;949.2;;;13.4;74.1
40013;BME280;37387;42.672;23.334;2022-10-31T03:23:14;949.2;;;13.3;74.3
40013;BME280;37387;42.672;23.334;2022-10-31T03:27:13;949.2;;;13.2;74.7
40013;BME280;37387;42.672;23.334;2022-10-31T03:28:13;949.2;;;13.3;74.8
40013;BME280;37387;42.672;23.334;2022-10-31T03:29:13;949.3;;;13.2;74.9
40013;BME280;37387;42.672;23.334;2022-10-31T03:34:13;949.2;;;13.1;75.7
40013;BME280;37387;42.672;23.334;2022-10-31T03:39:13;949.3;;;13.0;76.6
40013;BME280;37387;42.672;23.334;2022-10-31T03:41:13;949.4;;;12.9;77.0
40013;BME280;37387;42.672;23.334;2022-10-31T03:48:13;949.4;;;12.8;77.9
40013;BME280;37387;42.672;23.334;2022-10-31T03:52:15;949.5;;;12.7;78.6
40013;BME280;37387;42.672;23.334;2022-10-31T03:54:13;949.4;;;12.6;78.9
40013;BME280;37387;42.672;23.334;2022-10-31T03:57:14;949.4;;;12.5;79.2
40013;BME280;37387;42.672;23.334;2022-10-31T04:00:13;949.4;;;12.4;80.2
40013;BME280;37387;42.672;23.334;2022-10-31T04:01:14;949.5;;;12.3;80.6
40013;BME280;37387;42.672;23.334;2022-10-31T04:04:13;949.5;;;12.2;81.6
40013;BME280;37387;42.672;23.334;2022-10-31T04:09:13;949.5;;;12.1;82.5
40013;BME280;37387;42.672;23.334;2022-10-31T04:12:14;949.5;;;12.0;83.0
40013;BME280;37387;42.672;23.334;2022-10-31T04:20:15;949.6;;;11.9;84.4
40013;BME280;37387;42.672;23.334;2022-10-31T04:21:13;949.6;;;12.0;84.9
40013;BME280;37387;42.672;23.334;2022-10-31T04:30:13;949.6;;;12.1;85.4
40013;BME280;37387;42.672;23.334;2022-10-31T04:36:13;949.6;;;12.2;85.0
40013;BME280;37387;42.672;23.334;2022-10-31T04:40:13;949.6;;;12.3;84.4
40013;BME280;37387;42.672;23.334;2022-10-31T04:41:13;949.6;;;12.2;84.2
40013;BME280;37387;42.672;23.334;2022-10-31T04:45:13;949.6;;;12.3;84.6
40013;BME280;37387;42.672;23.334;2022-10-31T04:47:13;949.7;;;12.4;84.2
40013;BME280;37387;42.672;23.334;2022-10-31T04:50:13;949.7;;;12.3;88.8
40013;BME280;37387;42.672;23.334;2022-10-31T04:51:13;949.7;;;12.2;86.0
40013;BME280;37387;42.672;23.334;2022-10-31T04:52:13;949.7;;;12.1;86.0
40013;BME280;37387;42.672;23.334;2022-10-31T04:53:13;949.7;;;12.0;85.8
40013;BME280;37387;42.672;23.334;2022-10-31T04:55:13;949.8;;;11.9;86.5
40013;BME280;37387;42.672;23.334;2022-10-31T04:58:13;949.8;;;12.0;87.0
40013;BME280;37387;42.672;23.334;2022-10-31T05:01:13;949.8;;;11.9;87.5
40013;BME280;37387;42.672;23.334;2022-10-31T05:07:13;949.8;;;12.0;88.1
40013;BME280;37387;42.672;23.334;2022-10-31T05:09:13;949.8;;;12.1;87.6
40013;BME280;37387;42.672;23.334;2022-10-31T05:10:14;949.9;;;12.3;86.9
40013;BME280;37387;42.672;23.334;2022-10-31T05:11:13;949.9;;;12.5;86.9
40013;BME280;37387;42.672;23.334;2022-10-31T05:12:13;949.9;;;12.7;85.2
40013;BME280;37387;42.672;23.334;2022-10-31T05:13:13;949.9;;;13.0;82.9
40013;BME280;37387;42.672;23.334;2022-10-31T05:14:13;949.9;;;13.3;82.9
40013;BME280;37387;42.672;23.334;2022-10-31T05:15:13;949.9;;;13.6;79.0
40013;BME280;37387;42.672;23.334;2022-10-31T05:16:13;949.9;;;13.9;79.0
40013;BME280;37387;42.672;23.334;2022-10-31T05:17:13;949.9;;;14.3;76.2
40013;BME280;37387;42.672;23.334;2022-10-31T05:18:13;950.0;;;14.8;75.1
40013;BME280;37387;42.672;23.334;2022-10-31T05:19:13;950.0;;;15.2;74.0
40013;BME280;37387;42.672;23.334;2022-10-31T05:20:14;950.1;;;15.5;68.7
40013;BME280;37387;42.672;23.334;2022-10-31T05:21:13;950.1;;;15.8;68.7
40013;BME280;37387;42.672;23.334;2022-10-31T05:22:13;950.1;;;15.9;65.7
40013;BME280;37387;42.672;23.334;2022-10-31T05:23:13;950.1;;;15.8;64.6
40013;BME280;37387;42.672;23.334;2022-10-31T05:24:13;950.1;;;15.3;64.5
40013;BME280;37387;42.672;23.334;2022-10-31T05:25:13;950.1;;;14.9;66.2
40013;BME280;37387;42.672;23.334;2022-10-31T05:26:13;950.1;;;14.6;69.2
40013;BME280;37387;42.672;23.334;2022-10-31T05:27:13;950.1;;;14.7;69.4
40013;BME280;37387;42.672;23.334;2022-10-31T05:28:13;950.1;;;14.6;70.0
40013;BME280;37387;42.672;23.334;2022-10-31T05:29:13;950.1;;;14.4;70.0
40013;BME280;37387;42.672;23.334;2022-10-31T05:30:14;950.1;;;14.3;71.8
40013;BME280;37387;42.672;23.334;2022-10-31T05:31:13;950.1;;;14.4;71.5
40013;BME280;37387;42.672;23.334;2022-10-31T05:32:13;950.1;;;14.5;71.5
40013;BME280;37387;42.672;23.334;2022-10-31T05:33:13;950.1;;;14.3;71.5
40013;BME280;37387;42.672;23.334;2022-10-31T05:34:13;950.1;;;14.1;71.5
40013;BME280;37387;42.672;23.334;2022-10-31T05:35:14;950.1;;;14.0;72.5
40013;BME280;37387;42.672;23.334;2022-10-31T05:36:13;950.1;;;13.6;73.4
40013;BME280;37387;42.672;23.334;2022-10-31T05:37:13;950.2;;;13.3;75.3
40013;BME280;37387;42.672;23.334;2022-10-31T05:38:13;950.1;;;12.9;77.0
40013;BME280;37387;42.672;23.334;2022-10-31T05:39:13;950.2;;;12.8;80.1
40013;BME280;37387;42.672;23.334;2022-10-31T05:40:14;950.1;;;12.5;81.2
40013;BME280;37387;42.672;23.334;2022-10-31T05:41:13;950.1;;;12.6;83.1
40013;BME280;37387;42.672;23.334;2022-10-31T05:43:13;950.1;;;12.7;83.0
40013;BME280;37387;42.672;23.334;2022-10-31T05:45:14;950.2;;;12.8;84.1
40013;BME280;37387;42.672;23.334;2022-10-31T05:47:13;950.1;;;12.7;83.4
40013;BME280;37387;42.672;23.334;2022-10-31T05:49:13;950.2;;;12.8;82.5
40013;BME280;37387;42.672;23.334;2022-10-31T05:50:13;950.2;;;13.1;83.4
40013;BME280;37387;42.672;23.334;2022-10-31T05:51:13;950.2;;;13.4;83.4
40013;BME280;37387;42.672;23.334;2022-10-31T05:52:13;950.2;;;13.5;80.1
40013;BME280;37387;42.672;23.334;2022-10-31T05:55:13;950.3;;;13.6;77.6
40013;BME280;37387;42.672;23.334;2022-10-31T05:56:13;950.2;;;14.1;77.2
40013;BME280;37387;42.672;23.334;2022-10-31T05:57:13;950.3;;;14.8;76.1
40013;BME280;37387;42.672;23.334;2022-10-31T05:58:13;950.3;;;15.6;67.6
40013;BME280;37387;42.672;23.334;2022-10-31T05:59:13;950.3;;;16.4;67.6
40013;BME280;37387;42.672;23.334;2022-10-31T06:00:13;950.3;;;17.2;65.0
40013;BME280;37387;42.672;23.334;2022-10-31T06:01:13;950.3;;;17.4;60.5
40013;BME280;37387;42.672;23.334;2022-10-31T06:02:13;950.4;;;18.2;58.5
40013;BME280;37387;42.672;23.334;2022-10-31T06:03:13;950.4;;;18.8;56.3
40013;BME280;37387;42.672;23.334;2022-10-31T06:05:13;950.5;;;19.4;53.3
40013;BME280;37387;42.672;23.334;2022-10-31T06:06:13;950.5;;;20.0;51.7
40013;BME280;37387;42.672;23.334;2022-10-31T06:07:13;950.5;;;20.2;50.1
40013;BME280;37387;42.672;23.334;2022-10-31T06:08:13;950.6;;;20.1;49.3
40013;BME280;37387;42.672;23.334;2022-10-31T06:09:13;950.6;;;19.6;49.1
40013;BME280;37387;42.672;23.334;2022-10-31T06:10:13;950.6;;;19.7;50.0
40013;BME280;37387;42.672;23.334;2022-10-31T06:11:13;950.6;;;20.4;50.4
40013;BME280;37387;42.672;23.334;2022-10-31T06:12:13;950.6;;;21.0;48.5
40013;BME280;37387;42.672;23.334;2022-10-31T06:13:13;950.6;;;21.2;47.5
40013;BME280;37387;42.672;23.334;2022-10-31T06:14:13;950.6;;;21.9;46.7
40013;BME280;37387;42.672;23.334;2022-10-31T06:15:13;950.6;;;22.1;45.1
40013;BME280;37387;42.672;23.334;2022-10-31T06:16:13;950.6;;;21.5;45.0
40013;BME280;37387;42.672;23.334;2022-10-31T06:17:13;950.6;;;21.7;44.8
40013;BME280;37387;42.672;23.334;2022-10-31T06:18:13;950.6;;;21.2;45.1
40013;BME280;37387;42.672;23.334;2022-10-31T06:19:13;950.6;;;21.1;45.5
40013;BME280;37387;42.672;23.334;2022-10-31T06:20:13;950.7;;;21.2;46.0
40013;BME280;37387;42.672;23.334;2022-10-31T06:21:13;950.7;;;20.7;45.7
40013;BME280;37387;42.672;23.334;2022-10-31T06:22:13;950.7;;;20.5;47.1
40013;BME280;37387;42.672;23.334;2022-10-31T06:23:13;950.7;;;20.2;47.8
40013;BME280;37387;42.672;23.334;2022-10-31T06:24:13;950.7;;;20.9;47.8
40013;BME280;37387;42.672;23.334;2022-10-31T06:25:13;950.8;;;21.8;46.9
40013;BME280;37387;42.672;23.334;2022-10-31T06:26:13;950.8;;;21.6;44.8
40013;BME280;37387;42.672;23.334;2022-10-31T06:27:13;950.8;;;21.8;45.1
40013;BME280;37387;42.672;23.334;2022-10-31T06:28:13;950.8;;;21.6;44.6
40013;BME280;37387;42.672;23.334;2022-10-31T06:29:13;950.9;;;22.2;45.2
40013;BME280;37387;42.672;23.334;2022-10-31T06:30:13;950.9;;;22.0;44.2
40013;BME280;37387;42.672;23.334;2022-10-31T06:32:13;950.9;;;21.7;44.1
40013;BME280;37387;42.672;23.334;2022-10-31T06:33:13;950.9;;;22.4;44.7
40013;BME280;37387;42.672;23.334;2022-10-31T06:34:13;950.9;;;22.5;43.8
40013;BME280;37387;42.672;23.334;2022-10-31T06:35:13;950.9;;;22.2;42.7
40013;BME280;37387;42.672;23.334;2022-10-31T06:36:13;950.9;;;21.5;43.2
40013;BME280;37387;42.672;23.334;2022-10-31T06:38:13;950.9;;;22.0;44.8
40013;BME280;37387;42.672;23.334;2022-10-31T06:39:13;950.9;;;22.7;42.7
40013;BME280;37387;42.672;23.334;2022-10-31T06:40:13;950.9;;;22.2;42.7
40013;BME280;37387;42.672;23.334;2022-10-31T06:41:13;951.0;;;21.8;43.3
40013;BME280;37387;42.672;23.334;2022-10-31T06:42:14;950.9;;;21.6;44.3
40013;BME280;37387;42.672;23.334;2022-10-31T06:45:13;951.0;;;22.0;45.2
40013;BME280;37387;42.672;23.334;2022-10-31T06:46:13;951.0;;;21.5;44.6
40013;BME280;37387;42.672;23.334;2022-10-31T06:47:13;950.9;;;21.9;45.1
40013;BME280;37387;42.672;23.334;2022-10-31T06:48:13;950.9;;;22.8;44.7
40013;BME280;37387;42.672;23.334;2022-10-31T06:49:13;950.9;;;24.0;43.4
40013;BME280;37387;42.672;23.334;2022-10-31T06:50:13;951.0;;;25.0;39.2
40013;BME280;37387;42.672;23.334;2022-10-31T06:51:13;951.0;;;25.8;39.2
40013;BME280;37387;42.672;23.334;2022-10-31T06:52:13;951.1;;;26.6;37.9
40013;BME280;37387;42.672;23.334;2022-10-31T06:53:13;951.1;;;26.4;36.5
40013;BME280;37387;42.672;23.334;2022-10-31T06:54:13;951.1;;;24.6;36.3
40013;BME280;37387;42.672;23.334;2022-10-31T06:55:13;951.0;;;23.3;38.4
40013;BME280;37387;42.672;23.334;2022-10-31T06:56:13;951.0;;;22.6;41.1
40013;BME280;37387;42.672;23.334;2022-10-31T06:57:13;950.9;;;22.0;42.9
40013;BME280;37387;42.672;23.334;2022-10-31T06:58:13;950.9;;;21.1;44.0
40013;BME280;37387;42.672;23.334;2022-10-31T06:59:13;950.9;;;20.6;45.5
40013;BME280;37387;42.672;23.334;2022-10-31T07:00:13;950.9;;;21.1;46.8
40013;BME280;37387;42.672;23.334;2022-10-31T07:01:13;951.0;;;22.0;44.5
40013;BME280;37387;42.672;23.334;2022-10-31T07:02:13;951.0;;;22.8;44.5
40013;BME280;37387;42.672;23.334;2022-10-31T07:03:13;951.0;;;23.4;42.2
40013;BME280;37387;42.672;23.334;2022-10-31T07:04:13;951.0;;;23.8;42.2
40013;BME280;37387;42.672;23.334;2022-10-31T07:05:13;951.0;;;24.9;41.0
40013;BME280;37387;42.672;23.334;2022-10-31T07:06:13;951.1;;;25.4;39.3
40013;BME280;37387;42.672;23.334;2022-10-31T07:07:13;951.1;;;25.1;38.1
40013;BME280;37387;42.672;23.334;2022-10-31T07:08:13;951.0;;;25.7;38.4
40013;BME280;37387;42.672;23.334;2022-10-31T07:09:13;951.0;;;26.0;37.9
40013;BME280;37387;42.672;23.334;2022-10-31T07:11:13;951.0;;;25.5;37.0
40013;BME280;37387;42.672;23.334;2022-10-31T07:12:13;951.0;;;26.3;37.6
40013;BME280;37387;42.672;23.334;2022-10-31T07:14:13;951.1;;;26.4;36.6
40013;BME280;37387;42.672;23.334;2022-10-31T07:15:13;951.1;;;26.7;36.3
40013;BME280;37387;42.672;23.334;2022-10-31T07:16:13;951.1;;;27.2;36.1
40013;BME280;37387;42.672;23.334;2022-10-31T07:17:13;951.1;;;26.1;35.0
40013;BME280;37387;42.672;23.334;2022-10-31T07:18:13;951.0;;;24.6;36.2
40013;BME280;37387;42.672;23.334;2022-10-31T07:19:13;951.0;;;25.6;38.9
40013;BME280;37387;42.672;23.334;2022-10-31T07:20:13;951.0;;;24.9;38.3
40013;BME280;37387;42.672;23.334;2022-10-31T07:21:13;951.0;;;25.4;38.3
40013;BME280;37387;42.672;23.334;2022-10-31T07:23:13;951.0;;;26.1;37.7
40013;BME280;37387;42.672;23.334;2022-10-31T07:24:13;951.0;;;26.6;36.9
40013;BME280;37387;42.672;23.334;2022-10-31T07:25:13;951.0;;;26.8;36.2
40013;BME280;37387;42.672;23.334;2022-10-31T07:26:13;950.9;;;26.9;35.4
40013;BME280;37387;42.672;23.334;2022-10-31T07:27:13;950.8;;;24.4;35.4
40013;BME280;37387;42.672;23.334;2022-10-31T07:29:13;950.8;;;24.8;39.6
40013;BME280;37387;42.672;23.334;2022-10-31T07:30:13;950.9;;;25.2;38.8
40013;BME280;37387;42.672;23.334;2022-10-31T07:31:13;950.8;;;25.6;37.5
40013;BME280;37387;42.672;23.334;2022-10-31T07:32:13;950.8;;;25.8;37.5
40013;BME280;37387;42.672;23.334;2022-10-31T07:33:13;950.8;;;25.5;37.8
40013;BME280;37387;42.672;23.334;2022-10-31T07:35:14;950.8;;;24.7;38.9
40013;BME280;37387;42.672;23.334;2022-10-31T07:37:13;950.8;;;24.5;38.9
40013;BME280;37387;42.672;23.334;2022-10-31T07:38:13;950.8;;;24.4;39.1
40013;BME280;37387;42.672;23.334;2022-10-31T07:39:13;950.8;;;24.6;39.3
40013;BME280;37387;42.672;23.334;2022-10-31T07:40:13;950.9;;;25.1;39.1
40013;BME280;37387;42.672;23.334;2022-10-31T07:41:13;950.9;;;24.7;38.9
40013;BME280;37387;42.672;23.334;2022-10-31T07:42:13;950.9;;;25.2;38.9
40013;BME280;37387;42.672;23.334;2022-10-31T07:43:13;950.8;;;24.7;38.3
40013;BME280;37387;42.672;23.334;2022-10-31T07:44:13;950.8;;;24.9;38.6
40013;BME280;37387;42.672;23.334;2022-10-31T07:45:14;950.9;;;24.5;39.0
40013;BME280;37387;42.672;23.334;2022-10-31T07:46:13;950.9;;;24.1;39.0
40013;BME280;37387;42.672;23.334;2022-10-31T07:47:13;950.8;;;23.4;39.7
40013;BME280;37387;42.672;23.334;2022-10-31T07:48:13;950.8;;;23.9;40.8
40013;BME280;37387;42.672;23.334;2022-10-31T07:49:13;950.8;;;24.0;40.3
40013;BME280;37387;42.672;23.334;2022-10-31T07:50:14;950.8;;;24.1;40.3
40013;BME280;37387;42.672;23.334;2022-10-31T07:51:13;950.8;;;24.3;39.6
40013;BME280;37387;42.672;23.334;2022-10-31T07:52:13;950.8;;;24.4;39.7
40013;BME280;37387;42.672;23.334;2022-10-31T07:53:14;950.8;;;24.2;39.4
40013;BME280;37387;42.672;23.334;2022-10-31T07:54:13;950.8;;;23.5;39.9
40013;BME280;37387;42.672;23.334;2022-10-31T07:55:14;950.7;;;23.7;40.6
40013;BME280;37387;42.672;23.334;2022-10-31T07:56:13;950.8;;;23.4;40.7
40013;BME280;37387;42.672;23.334;2022-10-31T07:57:13;950.8;;;22.9;41.1
40013;BME280;37387;42.672;23.334;2022-10-31T07:58:13;950.8;;;23.9;41.9
40013;BME280;37387;42.672;23.334;2022-10-31T07:59:13;950.8;;;24.0;40.7
40013;BME280;37387;42.672;23.334;2022-10-31T08:00:13;950.8;;;22.9;40.5
40013;BME280;37387;42.672;23.334;2022-10-31T08:01:13;950.7;;;22.4;43.1
40013;BME280;37387;42.672;23.334;2022-10-31T08:02:13;950.8;;;23.4;41.7
40013;BME280;37387;42.672;23.334;2022-10-31T08:03:14;950.8;;;22.8;41.7
40013;BME280;37387;42.672;23.334;2022-10-31T08:04:13;950.8;;;22.0;44.0
40013;BME280;37387;42.672;23.334;2022-10-31T08:05:13;950.8;;;22.9;42.9
40013;BME280;37387;42.672;23.334;2022-10-31T08:06:13;950.8;;;23.3;42.9
40013;BME280;37387;42.672;23.334;2022-10-31T08:07:13;950.9;;;23.9;40.9
40013;BME280;37387;42.672;23.334;2022-10-31T08:08:13;950.9;;;24.5;40.9
40013;BME280;37387;42.672;23.334;2022-10-31T08:09:13;950.9;;;24.2;40.0
40013;BME280;37387;42.672;23.334;2022-10-31T08:10:13;950.9;;;25.0;40.3
40013;BME280;37387;42.672;23.334;2022-10-31T08:12:13;950.9;;;25.4;39.0
40013;BME280;37387;42.672;23.334;2022-10-31T08:13:13;950.9;;;25.9;38.4
40013;BME280;37387;42.672;23.334;2022-10-31T08:14:13;950.9;;;26.1;37.6
40013;BME280;37387;42.672;23.334;2022-10-31T08:15:13;950.9;;;26.0;37.3
40013;BME280;37387;42.672;23.334;2022-10-31T08:16:13;950.9;;;25.4;37.1
40013;BME280;37387;42.672;23.334;2022-10-31T08:17:13;950.9;;;25.0;38.4
40013;BME280;37387;42.672;23.334;2022-10-31T08:18:14;950.9;;;25.2;38.4
40013;BME280;37387;42.672;23.334;2022-10-31T08:19:13;950.9;;;25.1;38.1
40013;BME280;37387;42.672;23.334;2022-10-31T08:20:13;950.9;;;24.6;38.6
40013;BME280;37387;42.672;23.334;2022-10-31T08:21:13;950.9;;;25.1;39.4
40013;BME280;37387;42.672;23.334;2022-10-31T08:22:13;950.9;;;25.5;38.8
40013;BME280;37387;42.672;23.334;2022-10-31T08:23:13;950.9;;;26.0;37.2
40013;BME280;37387;42.672;23.334;2022-10-31T08:24:13;950.9;;;26.6;37.2
40013;BME280;37387;42.672;23.334;2022-10-31T08:25:13;950.9;;;26.7;36.2
40013;BME280;37387;42.672;23.334;2022-10-31T08:26:13;950.9;;;26.4;36.1
40013;BME280;37387;42.672;23.334;2022-10-31T08:27:13;950.8;;;26.7;36.3
40013;BME280;37387;42.672;23.334;2022-10-31T08:28:13;950.9;;;27.3;35.0
40013;BME280;37387;42.672;23.334;2022-10-31T08:29:13;950.9;;;26.5;35.0
40013;BME280;37387;42.672;23.334;2022-10-31T08:30:13;950.9;;;26.4;36.1
40013;BME280;37387;42.672;23.334;2022-10-31T08:31:13;950.9;;;26.8;36.4
40013;BME280;37387;42.672;23.334;2022-10-31T08:32:13;950.9;;;26.4;35.9
40013;BME280;37387;42.672;23.334;2022-10-31T08:33:14;950.9;;;26.7;36.2
40013;BME280;37387;42.672;23.334;2022-10-31T08:34:13;950.9;;;26.3;36.0
40013;BME280;37387;42.672;23.334;2022-10-31T08:35:13;950.9;;;26.0;36.6
40013;BME280;37387;42.672;23.334;2022-10-31T08:36:13;950.9;;;26.3;36.6
40013;BME280;37387;42.672;23.334;2022-10-31T08:37:13;950.9;;;26.2;36.2
40013;BME280;37387;42.672;23.334;2022-10-31T08:38:13;950.9;;;25.8;36.4
40013;BME280;37387;42.672;23.334;2022-10-31T08:39:13;950.8;;;24.4;36.9
40013;BME280;37387;42.672;23.334;2022-10-31T08:40:13;950.8;;;24.5;39.3
40013;BME280;37387;42.672;23.334;2022-10-31T08:41:13;950.9;;;24.8;39.4
40013;BME280;37387;42.672;23.334;2022-10-31T08:42:13;950.8;;;24.5;39.1
40013;BME280;37387;42.672;23.334;2022-10-31T08:43:14;950.8;;;24.2;39.4
40013;BME280;37387;42.672;23.334;2022-10-31T08:44:13;950.8;;;25.0;39.1
40013;BME280;37387;42.672;23.334;2022-10-31T08:45:13;950.8;;;25.5;39.1
40013;BME280;37387;42.672;23.334;2022-10-31T08:46:13;950.8;;;24.3;38.0
40013;BME280;37387;42.672;23.334;2022-10-31T08:48:14;950.8;;;23.9;40.2
40013;BME280;37387;42.672;23.334;2022-10-31T08:49:13;950.8;;;24.2;40.2
40013;BME280;37387;42.672;23.334;2022-10-31T08:50:13;950.8;;;24.8;40.2
40013;BME280;37387;42.672;23.334;2022-10-31T08:51:13;950.8;;;25.0;39.4
40013;BME280;37387;42.672;23.334;2022-10-31T08:52:13;950.8;;;25.3;38.6
40013;BME280;37387;42.672;23.334;2022-10-31T08:53:14;950.8;;;25.8;37.8
40013;BME280;37387;42.672;23.334;2022-10-31T08:54:13;950.8;;;26.0;37.8
40013;BME280;37387;42.672;23.334;2022-10-31T08:55:13;950.8;;;25.6;37.5
40013;BME280;37387;42.672;23.334;2022-10-31T08:56:13;950.8;;;25.7;37.8
40013;BME280;37387;42.672;23.334;2022-10-31T08:57:13;950.8;;;26.0;37.8
40013;BME280;37387;42.672;23.334;2022-10-31T08:58:14;950.8;;;26.4;36.8
40013;BME280;37387;42.672;23.334;2022-10-31T08:59:13;950.8;;;27.0;36.8
40013;BME280;37387;42.672;23.334;2022-10-31T09:00:13;950.8;;;26.2;35.9
40013;BME280;37387;42.672;23.334;2022-10-31T09:02:13;950.8;;;26.4;37.0
40013;BME280;37387;42.672;23.334;2022-10-31T09:03:14;950.8;;;25.9;36.8
40013;BME280;37387;42.672;23.334;2022-10-31T09:04:13;950.8;;;25.5;37.3
40013;BME280;37387;42.672;23.334;2022-10-31T09:05:13;950.8;;;25.2;38.1
40013;BME280;37387;42.672;23.334;2022-10-31T09:07:13;950.8;;;24.9;38.8
40013;BME280;37387;42.672;23.334;2022-10-31T09:08:13;950.8;;;25.5;39.3
40013;BME280;37387;42.672;23.334;2022-10-31T09:10:13;950.7;;;24.7;38.4
40013;BME280;37387;42.672;23.334;2022-10-31T09:11:13;950.8;;;25.0;39.5
40013;BME280;37387;42.672;23.334;2022-10-31T09:12:13;950.8;;;25.3;39.6
40013;BME280;37387;42.672;23.334;2022-10-31T09:13:14;950.8;;;25.1;38.8
40013;BME280;37387;42.672;23.334;2022-10-31T09:14:13;950.8;;;25.0;38.8
40013;BME280;37387;42.672;23.334;2022-10-31T09:15:13;950.7;;;25.8;39.3
40013;BME280;37387;42.672;23.334;2022-10-31T09:16:13;950.7;;;25.9;38.3
40013;BME280;37387;42.672;23.334;2022-10-31T09:17:13;950.7;;;26.3;37.7
40013;BME280;37387;42.672;23.334;2022-10-31T09:18:14;950.7;;;26.5;37.3
40013;BME280;37387;42.672;23.334;2022-10-31T09:20:13;950.7;;;25.9;37.0
40013;BME280;37387;42.672;23.334;2022-10-31T09:21:13;950.7;;;26.3;38.0
40013;BME280;37387;42.672;23.334;2022-10-31T09:22:13;950.7;;;25.9;38.2
40013;BME280;37387;42.672;23.334;2022-10-31T09:23:14;950.7;;;26.5;38.2
40013;BME280;37387;42.672;23.334;2022-10-31T09:24:13;950.7;;;26.4;37.0
40013;BME280;37387;42.672;23.334;2022-10-31T09:25:13;950.7;;;26.0;37.6
40013;BME280;37387;42.672;23.334;2022-10-31T09:26:13;950.7;;;26.5;37.6
40013;BME280;37387;42.672;23.334;2022-10-31T09:27:13;950.7;;;27.5;37.2
40013;BME280;37387;42.672;23.334;2022-10-31T09:28:15;950.7;;;27.9;35.8
40013;BME280;37387;42.672;23.334;2022-10-31T09:29:13;950.7;;;27.7;35.1
40013;BME280;37387;42.672;23.334;2022-10-31T09:30:13;950.7;;;27.0;35.2
40013;BME280;37387;42.672;23.334;2022-10-31T09:31:13;950.7;;;26.5;36.2
40013;BME280;37387;42.672;23.334;2022-10-31T09:32:13;950.7;;;26.8;37.3
40013;BME280;37387;42.672;23.334;2022-10-31T09:33:13;950.7;;;27.4;35.8
40013;BME280;37387;42.672;23.334;2022-10-31T09:34:13;950.7;;;26.3;35.8
40013;BME280;37387;42.672;23.334;2022-10-31T09:35:13;950.7;;;26.8;36.8
40013;BME280;37387;42.672;23.334;2022-10-31T09:36:13;950.7;;;27.0;36.8
40013;BME280;37387;42.672;23.334;2022-10-31T09:37:13;950.7;;;26.9;36.2
40013;BME280;37387;42.672;23.334;2022-10-31T09:38:14;950.7;;;26.8;36.4
40013;BME280;37387;42.672;23.334;2022-10-31T09:39:13;950.7;;;27.2;36.1
40013;BME280;37387;42.672;23.334;2022-10-31T09:40:13;950.6;;;26.9;36.1
40013;BME280;37387;42.672;23.334;2022-10-31T09:42:21;950.7;;;27.1;36.4
40013;BME280;37387;42.672;23.334;2022-10-31T09:43:14;950.7;;;27.4;36.2
40013;BME280;37387;42.672;23.334;2022-10-31T09:44:14;950.7;;;27.1;35.9
40013;BME280;37387;42.672;23.334;2022-10-31T09:45:14;950.6;;;27.6;36.3
40013;BME280;37387;42.672;23.334;2022-10-31T09:46:15;950.6;;;27.3;35.5
40013;BME280;37387;42.672;23.334;2022-10-31T09:47:15;950.7;;;27.0;35.9
40013;BME280;37387;42.672;23.334;2022-10-31T09:48:23;950.6;;;26.8;36.2